createdAt,value
2018-04-01T00:01:07.706Z,5.07
2018-04-01T00:03:38.859Z,3.20
2018-04-01T00:06:06.675Z,3.30
2018-04-01T00:08:33.717Z,3.17
2018-04-01T00:11:00.759Z,3.00
2018-04-01T00:13:27.775Z,4.03
2018-04-01T00:15:54.840Z,3.07
2018-04-01T00:18:21.892Z,2.90
2018-04-01T00:20:48.914Z,3.03
2018-04-01T00:23:16.697Z,3.23
2018-04-01T00:25:43.796Z,2.60
2018-04-01T00:28:10.805Z,2.47
2018-04-01T00:30:37.840Z,3.27
2018-04-01T00:33:04.894Z,3.37
2018-04-01T00:35:32.749Z,3.43
2018-04-01T00:37:59.808Z,3.00
2018-04-01T00:40:26.913Z,3.87
2018-04-01T00:42:54.742Z,3.30
2018-04-01T00:45:21.790Z,2.60
2018-04-01T00:47:48.822Z,2.47
2018-04-01T00:50:15.900Z,2.60
2018-04-01T00:52:42.939Z,2.47
2018-04-01T00:55:10.057Z,4.13
2018-04-01T00:57:37.098Z,2.40
2018-04-01T01:00:04.139Z,3.50
2018-04-01T01:02:31.245Z,3.00
2018-04-01T01:04:59.068Z,2.83
2018-04-01T01:07:26.073Z,2.70
2018-04-01T01:09:53.915Z,3.07
2018-04-01T01:12:21.012Z,3.53
2018-04-01T01:14:48.010Z,3.13
2018-04-01T01:17:15.057Z,4.50
2018-04-01T01:19:42.111Z,3.87
2018-04-01T01:22:09.237Z,6.37
2018-04-01T01:24:36.319Z,4.03
2018-04-01T01:27:04.178Z,4.20
2018-04-01T01:29:31.253Z,4.40
2018-04-01T01:31:59.162Z,3.17
2018-04-01T01:34:26.134Z,2.57
2018-04-01T01:36:53.148Z,3.20
2018-04-01T01:39:20.149Z,2.87
2018-04-01T01:41:47.149Z,2.53
2018-04-01T01:44:14.137Z,3.00
2018-04-01T01:46:41.142Z,3.10
2018-04-01T01:49:08.144Z,3.20
2018-04-01T01:51:35.154Z,4.10
2018-04-01T01:54:02.165Z,3.67
2018-04-01T01:56:29.176Z,3.27
2018-04-01T01:58:56.314Z,3.60
2018-04-01T02:01:23.378Z,5.07
2018-04-01T02:03:50.411Z,5.63
2018-04-01T02:06:18.223Z,6.53
2018-04-01T02:08:45.484Z,5.30
2018-04-01T02:11:12.516Z,3.60
2018-04-01T02:13:39.593Z,4.17
2018-04-01T02:16:06.610Z,4.10
2018-04-01T02:18:33.661Z,4.57
2018-04-01T02:21:00.809Z,4.63
2018-04-01T02:23:27.950Z,4.10
2018-04-01T02:25:55.032Z,4.20
2018-04-01T02:28:22.073Z,10.30
2018-04-01T02:30:49.113Z,9.97
2018-04-01T02:33:18.089Z,9.07
2018-04-01T02:35:45.220Z,7.37
2018-04-01T02:38:12.278Z,7.20
2018-04-01T02:40:39.350Z,6.23
2018-04-01T02:43:06.498Z,4.83
2018-04-01T02:45:33.577Z,4.37
2018-04-01T02:48:01.481Z,5.03
2018-04-01T02:50:28.549Z,5.70
2018-04-01T02:52:55.590Z,6.10
2018-04-01T02:55:22.646Z,5.13
2018-04-01T02:57:49.710Z,6.60
2018-04-01T03:00:16.859Z,6.47
2018-04-01T03:02:43.904Z,5.50
2018-04-01T03:05:10.959Z,4.70
2018-04-01T03:07:38.023Z,5.43
2018-04-01T03:10:05.066Z,6.13
2018-04-01T03:12:32.097Z,5.27
2018-04-01T03:14:59.126Z,6.07
2018-04-01T03:17:26.188Z,6.30
2018-04-01T03:19:53.247Z,6.30
2018-04-01T03:22:24.960Z,5.53
2018-04-01T03:24:51.986Z,5.10
2018-04-01T03:27:19.214Z,5.00
2018-04-01T03:29:46.238Z,5.20
2018-04-01T03:32:13.314Z,5.53
2018-04-01T03:34:41.116Z,5.03
2018-04-01T03:37:08.211Z,5.90
2018-04-01T03:39:36.053Z,5.13
2018-04-01T03:42:03.125Z,5.33
2018-04-01T03:44:30.992Z,5.47
2018-04-01T03:46:58.018Z,5.73
2018-04-01T03:49:25.078Z,5.67
2018-04-01T03:51:52.113Z,5.90
2018-04-01T03:54:20.118Z,5.93
2018-04-01T03:56:47.162Z,6.10
2018-04-01T03:59:14.197Z,5.73
2018-04-01T04:01:41.265Z,6.97
2018-04-01T04:04:08.287Z,8.00
2018-04-01T04:06:35.354Z,5.90
2018-04-01T04:09:02.401Z,4.87
2018-04-01T04:11:30.162Z,5.97
2018-04-01T04:13:57.176Z,6.70
2018-04-01T04:16:24.146Z,8.63
2018-04-01T04:18:51.895Z,8.50
2018-04-01T04:21:18.904Z,10.73
2018-04-01T04:23:45.899Z,9.40
2018-04-01T04:26:12.873Z,7.93
2018-04-01T04:28:39.867Z,8.27
2018-04-01T04:31:06.852Z,8.97
2018-04-01T04:33:34.584Z,8.63
2018-04-01T04:36:01.553Z,10.63
2018-04-01T04:38:29.300Z,9.17
2018-04-01T04:40:56.321Z,10.07
2018-04-01T04:43:23.371Z,10.37
2018-04-01T04:45:50.341Z,9.50
2018-04-01T04:48:17.341Z,11.60
2018-04-01T04:50:44.329Z,12.50
2018-04-01T04:55:44.780Z,14.20
2018-04-01T04:58:11.808Z,13.57
2018-04-01T05:00:38.780Z,13.00
2018-04-01T05:03:06.825Z,13.30
2018-04-01T05:05:33.893Z,11.57
2018-04-01T05:08:01.614Z,12.57
2018-04-01T05:10:28.686Z,14.17
2018-04-01T05:12:55.813Z,12.77
2018-04-01T05:15:22.911Z,12.47
2018-04-01T05:17:50.757Z,14.07
2018-04-01T05:20:17.861Z,14.43
2018-04-01T05:22:44.941Z,13.50
2018-04-01T05:25:11.993Z,14.87
2018-04-01T05:27:39.113Z,14.40
2018-04-01T05:30:06.896Z,18.10
2018-04-01T05:32:33.944Z,13.83
2018-04-01T05:35:01.116Z,13.50
2018-04-01T05:37:28.951Z,15.47
2018-04-01T05:39:56.077Z,15.17
2018-04-01T05:42:23.133Z,13.63
2018-04-01T05:44:50.237Z,13.10
2018-04-01T05:47:18.079Z,13.53
2018-04-01T05:49:45.177Z,12.73
2018-04-01T05:52:12.258Z,14.27
2018-04-01T05:54:39.290Z,14.27
2018-04-01T05:57:06.369Z,14.63
2018-04-01T05:59:33.504Z,12.37
2018-04-01T06:02:00.540Z,14.97
2018-04-01T06:04:27.553Z,12.47
2018-04-01T06:06:54.616Z,13.43
2018-04-01T06:09:21.945Z,13.13
2018-04-01T06:11:49.026Z,12.33
2018-04-01T06:14:16.054Z,11.00
2018-04-01T06:16:43.154Z,11.00
2018-04-01T06:19:10.280Z,11.03
2018-04-01T06:21:37.320Z,11.33
2018-04-01T06:24:04.387Z,12.00
2018-04-01T06:26:31.406Z,11.27
2018-04-01T06:28:58.456Z,11.17
2018-04-01T06:31:25.586Z,14.30
2018-04-01T06:33:52.599Z,12.23
2018-04-01T06:36:20.477Z,13.30
2018-04-01T06:38:47.552Z,12.00
2018-04-01T06:41:14.569Z,11.23
2018-04-01T06:43:42.369Z,11.43
2018-04-01T06:46:09.577Z,11.77
2018-04-01T06:48:37.317Z,11.93
2018-04-01T06:51:04.282Z,12.33
2018-04-01T06:53:32.068Z,13.70
2018-04-01T06:55:59.037Z,13.67
2018-04-01T06:58:26.002Z,14.30
2018-04-01T07:00:53.028Z,14.07
2018-04-01T07:03:20.022Z,15.27
2018-04-01T07:05:47.039Z,14.80
2018-04-01T07:08:14.045Z,16.47
2018-04-01T07:10:41.026Z,18.07
2018-04-01T07:13:08.376Z,17.73
2018-04-01T07:15:35.403Z,17.40
2018-04-01T07:18:02.406Z,15.40
2018-04-01T07:20:29.470Z,15.27
2018-04-01T07:22:57.238Z,11.47
2018-04-01T07:25:25.002Z,12.03
2018-04-01T07:27:52.779Z,15.57
2018-04-01T07:30:19.748Z,16.77
2018-04-01T07:32:46.732Z,16.37
2018-04-01T07:35:13.765Z,15.93
2018-04-01T07:37:40.737Z,10.77
2018-04-01T07:40:08.500Z,10.47
2018-04-01T07:42:35.476Z,8.50
2018-04-01T07:45:02.437Z,9.70
2018-04-01T07:47:29.464Z,9.77
2018-04-01T07:49:56.428Z,8.23
2018-04-01T07:52:23.417Z,7.07
2018-04-01T07:54:50.421Z,6.93
2018-04-01T07:57:17.371Z,8.73
2018-04-01T07:59:44.360Z,7.50
2018-04-01T08:02:12.101Z,7.87
2018-04-01T08:04:39.108Z,7.63
2018-04-01T08:07:12.380Z,7.07
2018-04-01T08:09:40.137Z,8.57
2018-04-01T08:12:07.877Z,8.73
2018-04-01T08:14:34.852Z,7.97
2018-04-01T08:17:02.673Z,9.60
2018-04-01T08:19:32.915Z,9.63
2018-04-01T08:21:59.941Z,12.37
2018-04-01T08:24:26.984Z,12.60
2018-04-01T08:26:53.988Z,13.40
2018-04-01T08:29:21.025Z,15.30
2018-04-01T08:31:48.781Z,15.47
2018-04-01T08:34:16.568Z,18.30
2018-04-01T08:36:47.179Z,16.57
2018-04-01T08:39:14.945Z,14.90
2018-04-01T08:41:42.685Z,16.93
2018-04-01T08:44:09.671Z,18.77
2018-04-01T08:46:36.663Z,15.87
2018-04-01T08:49:03.642Z,18.67
2018-04-01T08:51:31.655Z,18.43
2018-04-01T08:53:58.616Z,21.97
2018-04-01T08:56:25.583Z,19.83
2018-04-01T08:58:56.109Z,22.00
2018-04-01T09:01:23.074Z,17.03
2018-04-01T09:03:58.396Z,22.17
2018-04-01T09:06:25.368Z,21.93
2018-04-01T09:08:52.353Z,21.33
2018-04-01T09:11:19.357Z,20.33
2018-04-01T09:13:47.077Z,19.20
2018-04-01T09:16:14.073Z,22.60
2018-04-01T09:18:41.092Z,22.07
2018-04-01T09:21:08.053Z,21.70
2018-04-01T09:23:35.812Z,25.27
2018-04-01T09:26:03.584Z,21.70
2018-04-01T09:28:31.345Z,24.10
2018-04-01T09:30:59.076Z,22.17
2018-04-01T09:33:26.072Z,20.60
2018-04-01T09:35:53.056Z,24.40
2018-04-01T09:38:20.084Z,24.47
2018-04-01T09:40:47.104Z,23.20
2018-04-01T09:43:14.121Z,25.40
2018-04-01T09:45:41.048Z,25.87
2018-04-01T09:48:08.069Z,24.30
2018-04-01T09:50:35.032Z,25.03
2018-04-01T09:53:02.010Z,25.70
2018-04-01T09:55:30.685Z,24.13
2018-04-01T09:58:01.203Z,22.43
2018-04-01T10:00:28.190Z,22.07
2018-04-01T10:03:02.013Z,22.67
2018-04-01T10:05:29.742Z,24.60
2018-04-01T10:07:57.996Z,24.70
2018-04-01T10:10:25.867Z,28.27
2018-04-01T10:12:54.137Z,21.97
2018-04-01T10:15:21.629Z,15.93
2018-04-01T10:17:49.853Z,15.80
2018-04-01T10:20:17.334Z,17.13
2018-04-01T10:22:44.844Z,19.13
2018-04-01T10:25:12.323Z,17.00
2018-04-01T10:27:39.780Z,21.77
2018-04-01T10:30:08.040Z,18.00
2018-04-01T10:32:35.559Z,17.33
2018-04-01T10:35:02.975Z,18.97
2018-04-01T10:37:30.758Z,16.70
2018-04-01T10:39:58.998Z,17.00
2018-04-01T10:42:26.489Z,18.40
2018-04-01T10:44:53.954Z,17.70
2018-04-01T10:47:22.230Z,20.40
2018-04-01T10:49:49.703Z,19.83
2018-04-01T10:52:17.956Z,20.87
2018-04-01T10:54:44.920Z,22.03
2018-04-01T10:57:12.704Z,22.73
2018-04-01T10:59:39.687Z,21.50
2018-04-01T11:02:07.440Z,23.23
2018-04-01T11:04:34.428Z,21.60
2018-04-01T11:07:02.152Z,21.97
2018-04-01T11:09:29.150Z,22.33
2018-04-01T11:11:56.161Z,25.93
2018-04-01T11:14:23.141Z,24.50
2018-04-01T11:16:50.875Z,25.57
2018-04-01T11:19:17.868Z,26.87
2018-04-01T11:21:44.843Z,25.03
2018-04-01T11:24:15.405Z,25.97
2018-04-01T11:26:42.385Z,41.13
2018-04-01T11:29:09.371Z,31.03
2018-04-01T11:31:36.336Z,28.20
2018-04-01T11:34:03.332Z,31.13
2018-04-01T11:36:30.337Z,29.70
2018-04-01T11:38:58.098Z,31.33
2018-04-01T11:41:25.055Z,36.00
2018-04-01T11:43:52.833Z,32.50
2018-04-01T11:46:19.813Z,29.53
2018-04-01T11:48:46.792Z,32.90
2018-04-01T11:51:13.815Z,31.73
2018-04-01T11:53:40.800Z,30.40
2018-04-01T11:56:08.521Z,29.93
2018-04-01T11:58:35.534Z,32.73
2018-04-01T12:01:02.510Z,33.00
2018-04-01T12:03:29.544Z,32.77
2018-04-01T12:05:56.515Z,30.97
2018-04-01T12:08:23.474Z,31.87
2018-04-01T12:10:50.476Z,32.87
2018-04-01T12:13:17.472Z,26.30
2018-04-01T12:15:44.450Z,30.33
2018-04-01T12:18:11.440Z,25.33
2018-04-01T12:20:38.406Z,23.13
2018-04-01T12:23:05.399Z,24.20
2018-04-01T12:25:32.416Z,24.83
2018-04-01T12:28:00.149Z,28.87
2018-04-01T12:30:27.139Z,27.97
2018-04-01T12:32:54.125Z,28.50
2018-04-01T12:35:21.116Z,29.83
2018-04-01T12:37:48.104Z,32.27
2018-04-01T12:40:15.095Z,32.93
2018-04-01T12:42:42.071Z,29.73
2018-04-01T12:45:09.049Z,37.17
2018-04-01T12:47:36.069Z,30.97
2018-04-01T12:50:03.052Z,34.80
2018-04-01T12:52:30.036Z,32.33
2018-04-01T12:54:57.786Z,33.43
2018-04-01T12:57:25.560Z,34.97
2018-04-01T12:59:53.292Z,40.03
2018-04-01T13:02:20.256Z,39.37
2018-04-01T13:04:48.025Z,38.70
2018-04-01T13:07:15.776Z,37.50
2018-04-01T13:09:42.747Z,40.70
2018-04-01T13:12:10.489Z,39.63
2018-04-01T13:14:38.240Z,37.60
2018-04-01T13:17:05.808Z,38.90
2018-04-01T13:19:32.780Z,35.00
2018-04-01T13:21:59.772Z,39.83
2018-04-01T13:24:26.756Z,35.87
2018-04-01T13:26:54.541Z,36.10
2018-04-01T13:29:21.497Z,36.73
2018-04-01T13:31:48.484Z,37.03
2018-04-01T13:34:15.452Z,37.10
2018-04-01T13:36:43.214Z,48.07
2018-04-01T13:39:10.173Z,37.73
2018-04-01T13:41:37.931Z,34.73
2018-04-01T13:44:05.668Z,38.97
2018-04-01T13:46:32.658Z,37.37
2018-04-01T13:48:59.670Z,38.27
2018-04-01T13:51:26.693Z,32.73
2018-04-01T13:53:53.701Z,32.63
2018-04-01T13:56:20.686Z,33.77
2018-04-01T13:58:47.700Z,33.20
2018-04-01T14:01:14.695Z,32.97
2018-04-01T14:03:41.771Z,33.30
2018-04-01T14:06:08.781Z,32.10
2018-04-01T14:08:35.806Z,33.03
2018-04-01T14:11:02.790Z,39.40
2018-04-01T14:13:29.796Z,31.27
2018-04-01T14:15:57.484Z,30.07
2018-04-01T14:18:24.479Z,29.93
2018-04-01T14:20:51.498Z,29.50
2018-04-01T14:23:18.462Z,27.00
2018-04-01T14:25:45.482Z,26.70
2018-04-01T14:28:12.501Z,21.13
2018-04-01T14:30:39.470Z,22.87
2018-04-01T14:33:06.485Z,24.37
2018-04-01T14:35:33.480Z,25.50
2018-04-01T14:38:01.253Z,26.20
2018-04-01T14:40:28.285Z,27.93
2018-04-01T14:42:56.028Z,28.10
2018-04-01T14:45:22.992Z,31.13
2018-04-01T14:47:49.973Z,28.97
2018-04-01T14:50:16.997Z,34.43
2018-04-01T14:52:43.944Z,34.80
2018-04-01T14:55:10.966Z,37.73
2018-04-01T14:57:37.927Z,39.33
2018-04-01T15:00:05.717Z,44.20
2018-04-01T15:02:32.719Z,44.53
2018-04-01T15:04:59.677Z,43.27
2018-04-01T15:07:27.424Z,49.57
2018-04-01T15:09:54.428Z,43.63
2018-04-01T15:12:21.394Z,48.60
2018-04-01T15:14:48.388Z,47.83
2018-04-01T15:17:19.618Z,48.00
2018-04-01T15:19:47.385Z,46.47
2018-04-01T15:22:15.137Z,47.40
2018-04-01T15:24:42.149Z,38.23
2018-04-01T15:27:15.314Z,47.53
2018-04-01T15:29:42.312Z,45.47
2018-04-01T15:32:10.176Z,44.03
2018-04-01T15:34:37.186Z,44.13
2018-04-01T15:37:04.184Z,42.57
2018-04-01T15:39:31.962Z,43.03
2018-04-01T15:41:59.701Z,43.17
2018-04-01T15:44:26.676Z,33.13
2018-04-01T15:46:53.659Z,26.73
2018-04-01T15:49:20.710Z,27.67
2018-04-01T15:51:47.648Z,24.03
2018-04-01T15:54:14.656Z,19.93
2018-04-01T15:56:42.430Z,17.67
2018-04-01T15:59:09.388Z,18.27
2018-04-01T16:01:36.414Z,17.57
2018-04-01T16:04:04.188Z,15.60
2018-04-01T16:06:31.188Z,15.20
2018-04-01T16:08:58.201Z,14.63
2018-04-01T16:11:25.160Z,15.50
2018-04-01T16:13:52.226Z,16.80
2018-04-01T16:16:19.200Z,14.63
2018-04-01T16:18:47.141Z,16.97
2018-04-01T16:21:14.167Z,18.40
2018-04-01T16:23:41.328Z,16.70
2018-04-01T16:26:09.334Z,19.17
2018-04-01T16:28:36.351Z,21.10
2018-04-01T16:31:03.382Z,23.07
2018-04-01T16:33:30.471Z,23.27
2018-04-01T16:35:57.435Z,23.00
2018-04-01T16:38:24.401Z,25.80
2018-04-01T16:40:51.374Z,25.93
2018-04-01T16:43:18.380Z,28.03
2018-04-01T16:45:45.353Z,28.10
2018-04-01T16:48:12.374Z,27.37
2018-04-01T16:50:39.356Z,26.07
2018-04-01T16:53:06.342Z,26.40
2018-04-01T16:55:34.103Z,23.97
2018-04-01T16:58:01.090Z,26.83
2018-04-01T17:00:33.248Z,28.77
2018-04-01T17:03:00.231Z,28.10
2018-04-01T17:05:27.195Z,24.70
2018-04-01T17:07:54.943Z,32.37
2018-04-01T17:10:22.049Z,27.40
2018-04-01T17:12:49.018Z,27.20
2018-04-01T17:15:16.001Z,29.60
2018-04-01T17:17:43.797Z,28.43
2018-04-01T17:20:10.787Z,31.40
2018-04-01T17:22:37.745Z,30.77
2018-04-01T17:25:04.737Z,30.20
2018-04-01T17:27:31.719Z,28.83
2018-04-01T17:29:58.707Z,29.00
2018-04-01T17:32:25.705Z,30.37
2018-04-01T17:34:52.705Z,32.07
2018-04-01T17:37:19.723Z,27.93
2018-04-01T17:39:46.710Z,30.70
2018-04-01T17:42:13.702Z,31.23
2018-04-01T17:44:40.690Z,31.93
2018-04-01T17:47:07.656Z,31.27
2018-04-01T17:49:34.628Z,32.77
2018-04-01T17:52:01.630Z,32.73
2018-04-01T17:54:28.660Z,29.27
2018-04-01T17:56:56.385Z,31.77
2018-04-01T17:59:23.362Z,32.67
2018-04-01T18:01:51.134Z,34.43
2018-04-01T18:04:18.869Z,33.07
2018-04-01T18:06:45.831Z,32.83
2018-04-01T18:09:13.588Z,34.10
2018-04-01T18:11:40.553Z,33.97
2018-04-01T18:14:07.548Z,37.67
2018-04-01T18:16:34.534Z,33.57
2018-04-01T18:19:02.265Z,35.17
2018-04-01T18:21:31.197Z,34.80
2018-04-01T18:23:58.427Z,35.57
2018-04-01T18:26:25.408Z,39.13
2018-04-01T18:28:52.397Z,34.80
2018-04-01T18:31:19.492Z,37.50
2018-04-01T18:33:46.395Z,35.60
2018-04-01T18:36:13.388Z,46.10
2018-04-01T18:38:40.409Z,40.13
2018-04-01T18:41:08.204Z,37.73
2018-04-01T18:43:38.173Z,44.63
2018-04-01T18:46:05.193Z,37.67
2018-04-01T18:48:32.188Z,34.77
2018-04-01T18:50:59.914Z,36.73
2018-04-01T18:53:26.888Z,41.30
2018-04-01T18:55:58.448Z,35.63
2018-04-01T18:58:26.263Z,38.07
2018-04-01T19:00:53.262Z,34.73
2018-04-01T19:03:21.040Z,37.07
2018-04-01T19:05:48.146Z,43.07
2018-04-01T19:08:15.212Z,40.70
2018-04-01T19:10:43.005Z,42.13
2018-04-01T19:13:10.077Z,38.63
2018-04-01T19:15:37.149Z,36.60
2018-04-01T19:18:04.676Z,38.83
2018-04-01T19:20:32.177Z,40.33
2018-04-01T19:22:59.900Z,38.90
2018-04-01T19:25:27.438Z,40.13
2018-04-01T19:27:58.632Z,38.77
2018-04-01T19:30:26.260Z,42.60
2018-04-01T19:32:53.797Z,40.03
2018-04-01T19:35:21.362Z,40.87
2018-04-01T19:37:48.949Z,38.67
2018-04-01T19:40:16.487Z,43.47
2018-04-01T19:42:44.122Z,42.10
2018-04-01T19:45:11.709Z,41.33
2018-04-01T19:47:40.054Z,41.13
2018-04-01T19:50:08.446Z,44.97
2018-04-01T19:52:36.051Z,46.03
2018-04-01T19:55:03.653Z,45.77
2018-04-01T19:57:31.974Z,50.23
2018-04-01T19:59:59.668Z,53.03
2018-04-01T20:02:27.464Z,62.67
2018-04-01T20:04:54.978Z,64.00
2018-04-01T20:07:22.532Z,64.47
2018-04-01T20:09:50.495Z,70.57
2018-04-01T20:12:18.105Z,69.63
2018-04-01T20:14:46.487Z,72.47
2018-04-01T20:17:14.096Z,75.77
2018-04-01T20:19:41.668Z,74.80
2018-04-01T20:22:10.043Z,77.87
2018-04-01T20:24:38.407Z,76.83
2018-04-01T20:27:06.062Z,75.87
2018-04-01T20:29:39.837Z,71.57
2018-04-01T20:32:07.478Z,77.20
2018-04-01T20:34:35.238Z,74.60
2018-04-01T20:37:02.831Z,73.73
2018-04-01T20:39:30.578Z,74.13
2018-04-01T20:41:58.881Z,72.37
2018-04-01T20:44:26.469Z,71.30
2018-04-01T20:46:54.151Z,78.60
2018-04-01T20:49:21.708Z,74.10
2018-04-01T20:51:50.040Z,90.33
2018-04-01T20:54:17.591Z,82.57
2018-04-01T20:56:45.769Z,90.17
2018-04-01T20:59:20.951Z,101.23
2018-04-01T21:01:49.296Z,95.30
2018-04-01T21:04:17.445Z,114.00
2018-04-01T21:06:45.133Z,106.73
2018-04-01T21:09:13.413Z,110.90
2018-04-01T21:11:40.973Z,103.27
2018-04-01T21:14:08.555Z,113.13
2018-04-01T21:16:36.145Z,114.33
2018-04-01T21:19:04.718Z,117.27
2018-04-01T21:21:33.245Z,115.57
2018-04-01T21:24:00.812Z,120.17
2018-04-01T21:26:28.402Z,117.50
2018-04-01T21:28:56.059Z,114.70
2018-04-01T21:31:23.634Z,123.17
2018-04-01T21:33:51.960Z,115.23
2018-04-01T21:36:19.430Z,128.10
2018-04-01T21:38:46.909Z,117.50
2018-04-01T21:41:14.373Z,122.50
2018-04-01T21:43:41.845Z,126.10
2018-04-01T21:46:10.097Z,123.73
2018-04-01T21:48:38.731Z,126.80
2018-04-01T21:51:06.909Z,130.93
2018-04-01T21:53:34.477Z,125.57
2018-04-01T21:56:01.988Z,130.37
2018-04-01T21:58:29.452Z,128.33
2018-04-01T22:00:57.748Z,126.63
2018-04-01T22:03:25.204Z,127.70
2018-04-01T22:05:52.671Z,136.83
2018-04-01T22:08:20.166Z,129.30
2018-04-01T22:10:47.649Z,137.97
2018-04-01T22:13:16.320Z,134.50
2018-04-01T22:15:43.807Z,128.90
2018-04-01T22:18:12.084Z,124.00
2018-04-01T22:20:40.315Z,134.53
2018-04-01T22:23:12.806Z,130.30
2018-04-01T22:25:41.053Z,130.93
2018-04-01T22:28:09.440Z,135.93
2018-04-01T22:30:36.901Z,135.17
2018-04-01T22:33:04.377Z,135.63
2018-04-01T22:35:31.846Z,133.00
2018-04-01T22:38:00.134Z,132.07
2018-04-01T22:40:27.616Z,129.83
2018-04-01T22:42:55.105Z,140.87
2018-04-01T22:45:22.582Z,138.07
2018-04-01T22:47:50.068Z,130.27
2018-04-01T22:50:17.556Z,141.77
2018-04-01T22:52:45.020Z,143.97
2018-04-01T22:55:12.489Z,137.67
2018-04-01T22:57:39.964Z,140.63
2018-04-01T23:00:07.495Z,147.07
2018-04-01T23:02:34.968Z,140.37
2018-04-01T23:05:02.487Z,137.10
2018-04-01T23:07:30.024Z,129.53
2018-04-01T23:09:58.290Z,138.33
2018-04-01T23:12:26.545Z,131.83
2018-04-01T23:14:54.052Z,132.83
2018-04-01T23:17:22.094Z,131.50
2018-04-01T23:19:49.598Z,133.83
2018-04-01T23:22:23.225Z,132.93
2018-04-01T23:24:50.729Z,129.03
2018-04-01T23:27:18.211Z,130.90
2018-04-01T23:29:45.708Z,127.50
2018-04-01T23:32:13.177Z,131.77
2018-04-01T23:34:41.406Z,145.03
2018-04-01T23:37:08.901Z,128.13
2018-04-01T23:39:36.376Z,129.17
2018-04-01T23:42:04.620Z,132.67
2018-04-01T23:44:32.089Z,133.40
2018-04-01T23:46:59.593Z,132.83
2018-04-01T23:49:27.086Z,131.67
2018-04-01T23:51:54.563Z,132.03
2018-04-01T23:54:22.016Z,136.67
2018-04-01T23:56:49.511Z,141.93
2018-04-01T23:59:16.997Z,142.97
